sensor_id;sensor_type;location;lat;lon;timestamp;P1;durP1;ratioP1;P2;durP2;ratioP2
7575;SDS011;3829;50.798;4.358;2022-11-15T00:02:20;24.97;;;18.33;;
7575;SDS011;3829;50.798;4.358;2022-11-15T00:04:46;24.53;;;17.03;;
7575;SDS011;3829;50.798;4.358;2022-11-15T00:07:12;25.10;;;17.60;;
7575;SDS011;3829;50.798;4.358;2022-11-15T00:09:37;26.90;;;18.07;;
7575;SDS011;3829;50.798;4.358;2022-11-15T00:12:03;24.47;;;17.53;;
7575;SDS011;3829;50.798;4.358;2022-11-15T00:14:28;26.03;;;18.87;;
7575;SDS011;3829;50.798;4.358;2022-11-15T00:16:54;25.80;;;18.13;;
7575;SDS011;3829;50.798;4.358;2022-11-15T00:19:19;28.47;;;19.00;;
7575;SDS011;3829;50.798;4.358;2022-11-15T00:21:45;29.00;;;19.57;;
7575;SDS011;3829;50.798;4.358;2022-11-15T00:24:11;28.07;;;19.50;;
7575;SDS011;3829;50.798;4.358;2022-11-15T00:26:37;29.57;;;20.13;;
7575;SDS011;3829;50.798;4.358;2022-11-15T00:29:02;29.37;;;20.27;;
7575;SDS011;3829;50.798;4.358;2022-11-15T00:31:28;32.50;;;19.13;;
7575;SDS011;3829;50.798;4.358;2022-11-15T00:33:53;26.83;;;18.43;;
7575;SDS011;3829;50.798;4.358;2022-11-15T00:36:19;28.13;;;18.67;;
7575;SDS011;3829;50.798;4.358;2022-11-15T00:38:44;28.80;;;18.60;;
7575;SDS011;3829;50.798;4.358;2022-11-15T00:41:10;27.33;;;18.70;;
7575;SDS011;3829;50.798;4.358;2022-11-15T00:43:36;27.80;;;18.47;;
7575;SDS011;3829;50.798;4.358;2022-11-15T00:46:01;29.03;;;19.90;;
7575;SDS011;3829;50.798;4.358;2022-11-15T00:48:27;33.43;;;20.13;;
7575;SDS011;3829;50.798;4.358;2022-11-15T00:50:53;31.63;;;21.73;;
7575;SDS011;3829;50.798;4.358;2022-11-15T00:53:19;32.57;;;21.60;;
7575;SDS011;3829;50.798;4.358;2022-11-15T00:55:44;33.53;;;21.73;;
7575;SDS011;3829;50.798;4.358;2022-11-15T00:58:11;30.30;;;21.23;;
7575;SDS011;3829;50.798;4.358;2022-11-15T01:00:37;33.97;;;21.03;;
7575;SDS011;3829;50.798;4.358;2022-11-15T01:03:02;34.13;;;21.57;;
7575;SDS011;3829;50.798;4.358;2022-11-15T01:05:28;41.43;;;22.33;;
7575;SDS011;3829;50.798;4.358;2022-11-15T01:07:54;32.83;;;22.57;;
7575;SDS011;3829;50.798;4.358;2022-11-15T01:10:21;32.43;;;21.40;;
7575;SDS011;3829;50.798;4.358;2022-11-15T01:12:47;39.00;;;22.67;;
7575;SDS011;3829;50.798;4.358;2022-11-15T01:15:13;31.20;;;20.93;;
7575;SDS011;3829;50.798;4.358;2022-11-15T01:17:38;34.20;;;21.07;;
7575;SDS011;3829;50.798;4.358;2022-11-15T01:20:04;36.67;;;22.70;;
7575;SDS011;3829;50.798;4.358;2022-11-15T01:22:30;35.37;;;20.87;;
7575;SDS011;3829;50.798;4.358;2022-11-15T01:24:56;27.00;;;19.33;;
7575;SDS011;3829;50.798;4.358;2022-11-15T01:27:21;31.30;;;20.07;;
7575;SDS011;3829;50.798;4.358;2022-11-15T01:29:47;31.30;;;19.13;;
7575;SDS011;3829;50.798;4.358;2022-11-15T01:32:12;28.43;;;18.90;;
7575;SDS011;3829;50.798;4.358;2022-11-15T01:34:38;30.63;;;17.87;;
7575;SDS011;3829;50.798;4.358;2022-11-15T01:37:04;28.23;;;19.20;;
7575;SDS011;3829;50.798;4.358;2022-11-15T01:39:29;28.37;;;18.03;;
7575;SDS011;3829;50.798;4.358;2022-11-15T01:41:55;27.73;;;16.83;;
7575;SDS011;3829;50.798;4.358;2022-11-15T01:46:59;25.17;;;16.77;;
7575;SDS011;3829;50.798;4.358;2022-11-15T01:49:27;25.10;;;15.40;;
7575;SDS011;3829;50.798;4.358;2022-11-15T01:51:57;23.17;;;16.23;;
7575;SDS011;3829;50.798;4.358;2022-11-15T01:54:25;27.20;;;16.43;;
7575;SDS011;3829;50.798;4.358;2022-11-15T01:56:59;25.97;;;15.97;;
7575;SDS011;3829;50.798;4.358;2022-11-15T01:59:29;20.37;;;15.13;;
7575;SDS011;3829;50.798;4.358;2022-11-15T02:01:55;20.60;;;14.60;;
7575;SDS011;3829;50.798;4.358;2022-11-15T02:04:40;20.07;;;14.60;;
7575;SDS011;3829;50.798;4.358;2022-11-15T02:07:08;21.27;;;14.93;;
7575;SDS011;3829;50.798;4.358;2022-11-15T02:09:36;25.90;;;14.10;;
7575;SDS011;3829;50.798;4.358;2022-11-15T02:12:03;21.97;;;15.30;;
7575;SDS011;3829;50.798;4.358;2022-11-15T02:14:29;21.67;;;14.43;;
7575;SDS011;3829;50.798;4.358;2022-11-15T02:19:56;21.20;;;15.40;;
7575;SDS011;3829;50.798;4.358;2022-11-15T02:26:00;22.30;;;15.00;;
7575;SDS011;3829;50.798;4.358;2022-11-15T02:42:56;21.43;;;13.53;;
7575;SDS011;3829;50.798;4.358;2022-11-15T02:45:51;22.40;;;14.47;;
7575;SDS011;3829;50.798;4.358;2022-11-15T02:48:21;23.83;;;14.83;;
7575;SDS011;3829;50.798;4.358;2022-11-15T02:50:48;24.03;;;12.83;;
7575;SDS011;3829;50.798;4.358;2022-11-15T02:53:15;17.60;;;12.57;;
7575;SDS011;3829;50.798;4.358;2022-11-15T02:55:44;18.20;;;11.87;;
7575;SDS011;3829;50.798;4.358;2022-11-15T03:03:59;23.03;;;12.07;;
7575;SDS011;3829;50.798;4.358;2022-11-15T03:12:20;16.00;;;10.57;;
7575;SDS011;3829;50.798;4.358;2022-11-15T03:14:53;17.27;;;10.47;;
7575;SDS011;3829;50.798;4.358;2022-11-15T03:17:29;13.10;;;9.37;;
7575;SDS011;3829;50.798;4.358;2022-11-15T03:20:01;14.53;;;9.80;;
7575;SDS011;3829;50.798;4.358;2022-11-15T03:22:32;12.73;;;8.73;;
7575;SDS011;3829;50.798;4.358;2022-11-15T03:25:02;16.67;;;8.87;;
7575;SDS011;3829;50.798;4.358;2022-11-15T03:27:33;15.10;;;8.90;;
7575;SDS011;3829;50.798;4.358;2022-11-15T03:30:04;14.73;;;8.23;;
7575;SDS011;3829;50.798;4.358;2022-11-15T03:32:34;18.03;;;7.83;;
7575;SDS011;3829;50.798;4.358;2022-11-15T03:35:12;14.87;;;8.20;;
7575;SDS011;3829;50.798;4.358;2022-11-15T03:37:57;13.73;;;7.17;;
7575;SDS011;3829;50.798;4.358;2022-11-15T03:41:00;12.30;;;7.47;;
7575;SDS011;3829;50.798;4.358;2022-11-15T03:46:26;11.20;;;6.90;;
7575;SDS011;3829;50.798;4.358;2022-11-15T03:49:12;10.23;;;7.03;;
7575;SDS011;3829;50.798;4.358;2022-11-15T03:52:01;12.80;;;6.13;;
7575;SDS011;3829;50.798;4.358;2022-11-15T03:54:28;9.83;;;6.27;;
7575;SDS011;3829;50.798;4.358;2022-11-15T03:56:54;12.43;;;7.10;;
7575;SDS011;3829;50.798;4.358;2022-11-15T03:59:20;9.23;;;6.37;;
7575;SDS011;3829;50.798;4.358;2022-11-15T04:01:45;12.77;;;6.77;;
7575;SDS011;3829;50.798;4.358;2022-11-15T04:04:11;11.67;;;7.07;;
7575;SDS011;3829;50.798;4.358;2022-11-15T04:06:37;10.07;;;6.40;;
7575;SDS011;3829;50.798;4.358;2022-11-15T04:09:02;11.37;;;6.63;;
7575;SDS011;3829;50.798;4.358;2022-11-15T04:11:28;10.10;;;6.40;;
7575;SDS011;3829;50.798;4.358;2022-11-15T04:13:54;14.23;;;6.50;;
7575;SDS011;3829;50.798;4.358;2022-11-15T04:16:19;10.40;;;6.80;;
7575;SDS011;3829;50.798;4.358;2022-11-15T04:18:45;13.20;;;7.70;;
7575;SDS011;3829;50.798;4.358;2022-11-15T04:21:31;11.93;;;7.27;;
7575;SDS011;3829;50.798;4.358;2022-11-15T04:24:14;10.77;;;6.97;;
7575;SDS011;3829;50.798;4.358;2022-11-15T04:26:40;10.43;;;6.83;;
7575;SDS011;3829;50.798;4.358;2022-11-15T04:29:06;12.03;;;7.43;;
7575;SDS011;3829;50.798;4.358;2022-11-15T04:31:50;10.70;;;6.50;;
7575;SDS011;3829;50.798;4.358;2022-11-15T04:34:15;11.87;;;6.47;;
7575;SDS011;3829;50.798;4.358;2022-11-15T04:36:41;9.40;;;6.73;;
7575;SDS011;3829;50.798;4.358;2022-11-15T04:39:25;13.27;;;7.03;;
7575;SDS011;3829;50.798;4.358;2022-11-15T04:41:50;13.07;;;6.60;;
7575;SDS011;3829;50.798;4.358;2022-11-15T04:44:16;12.73;;;6.20;;
7575;SDS011;3829;50.798;4.358;2022-11-15T04:46:41;11.63;;;5.90;;
7575;SDS011;3829;50.798;4.358;2022-11-15T04:49:07;10.20;;;6.23;;
7575;SDS011;3829;50.798;4.358;2022-11-15T04:51:33;9.40;;;6.57;;
7575;SDS011;3829;50.798;4.358;2022-11-15T04:53:58;6.50;;;5.33;;
7575;SDS011;3829;50.798;4.358;2022-11-15T04:56:24;11.80;;;5.67;;
7575;SDS011;3829;50.798;4.358;2022-11-15T04:58:49;9.03;;;5.97;;
7575;SDS011;3829;50.798;4.358;2022-11-15T05:01:15;13.87;;;7.13;;
7575;SDS011;3829;50.798;4.358;2022-11-15T05:03:41;12.83;;;5.83;;
7575;SDS011;3829;50.798;4.358;2022-11-15T05:06:25;8.23;;;5.60;;
7575;SDS011;3829;50.798;4.358;2022-11-15T05:08:51;14.50;;;5.60;;
7575;SDS011;3829;50.798;4.358;2022-11-15T05:11:17;11.17;;;5.43;;
7575;SDS011;3829;50.798;4.358;2022-11-15T05:13:43;12.27;;;5.70;;
7575;SDS011;3829;50.798;4.358;2022-11-15T05:16:08;13.23;;;5.30;;
7575;SDS011;3829;50.798;4.358;2022-11-15T05:18:34;7.50;;;4.90;;
7575;SDS011;3829;50.798;4.358;2022-11-15T05:21:07;11.50;;;5.07;;
7575;SDS011;3829;50.798;4.358;2022-11-15T05:23:35;7.57;;;4.60;;
7575;SDS011;3829;50.798;4.358;2022-11-15T05:26:01;9.80;;;4.87;;
7575;SDS011;3829;50.798;4.358;2022-11-15T05:28:27;9.87;;;4.80;;
7575;SDS011;3829;50.798;4.358;2022-11-15T05:30:53;8.57;;;4.97;;
7575;SDS011;3829;50.798;4.358;2022-11-15T05:33:26;10.40;;;5.20;;
7575;SDS011;3829;50.798;4.358;2022-11-15T05:35:54;9.33;;;4.53;;
7575;SDS011;3829;50.798;4.358;2022-11-15T05:38:30;11.87;;;4.87;;
7575;SDS011;3829;50.798;4.358;2022-11-15T05:40:56;9.03;;;4.87;;
7575;SDS011;3829;50.798;4.358;2022-11-15T05:43:22;10.87;;;4.50;;
7575;SDS011;3829;50.798;4.358;2022-11-15T05:45:48;9.80;;;4.67;;
7575;SDS011;3829;50.798;4.358;2022-11-15T05:48:14;11.50;;;5.33;;
7575;SDS011;3829;50.798;4.358;2022-11-15T05:50:41;12.93;;;5.03;;
7575;SDS011;3829;50.798;4.358;2022-11-15T05:53:10;12.57;;;5.30;;
7575;SDS011;3829;50.798;4.358;2022-11-15T05:55:39;11.20;;;5.20;;
7575;SDS011;3829;50.798;4.358;2022-11-15T05:58:05;10.23;;;5.50;;
7575;SDS011;3829;50.798;4.358;2022-11-15T06:00:31;13.80;;;5.60;;
7575;SDS011;3829;50.798;4.358;2022-11-15T06:02:57;9.37;;;5.60;;
7575;SDS011;3829;50.798;4.358;2022-11-15T06:05:23;12.33;;;5.63;;
7575;SDS011;3829;50.798;4.358;2022-11-15T06:07:49;14.77;;;5.37;;
7575;SDS011;3829;50.798;4.358;2022-11-15T06:10:14;11.53;;;5.67;;
7575;SDS011;3829;50.798;4.358;2022-11-15T06:12:40;11.23;;;5.27;;
7575;SDS011;3829;50.798;4.358;2022-11-15T06:15:05;12.40;;;4.97;;
7575;SDS011;3829;50.798;4.358;2022-11-15T06:17:31;10.20;;;5.00;;
7575;SDS011;3829;50.798;4.358;2022-11-15T06:19:57;10.23;;;4.53;;
7575;SDS011;3829;50.798;4.358;2022-11-15T06:22:23;11.93;;;5.23;;
7575;SDS011;3829;50.798;4.358;2022-11-15T06:24:48;11.00;;;4.60;;
7575;SDS011;3829;50.798;4.358;2022-11-15T06:27:14;14.07;;;5.03;;
7575;SDS011;3829;50.798;4.358;2022-11-15T06:29:39;14.27;;;5.53;;
7575;SDS011;3829;50.798;4.358;2022-11-15T06:32:05;10.23;;;4.63;;
7575;SDS011;3829;50.798;4.358;2022-11-15T06:34:30;10.57;;;4.63;;
7575;SDS011;3829;50.798;4.358;2022-11-15T06:36:56;9.37;;;4.87;;
7575;SDS011;3829;50.798;4.358;2022-11-15T06:39:22;13.87;;;6.07;;
7575;SDS011;3829;50.798;4.358;2022-11-15T06:41:47;9.90;;;5.57;;
7575;SDS011;3829;50.798;4.358;2022-11-15T06:44:13;12.10;;;5.40;;
7575;SDS011;3829;50.798;4.358;2022-11-15T06:46:38;15.90;;;5.47;;
7575;SDS011;3829;50.798;4.358;2022-11-15T06:49:04;8.77;;;5.30;;
7575;SDS011;3829;50.798;4.358;2022-11-15T06:51:29;10.67;;;5.53;;
7575;SDS011;3829;50.798;4.358;2022-11-15T06:53:55;10.47;;;5.43;;
7575;SDS011;3829;50.798;4.358;2022-11-15T06:56:20;15.70;;;5.73;;
7575;SDS011;3829;50.798;4.358;2022-11-15T06:58:46;8.13;;;5.47;;
7575;SDS011;3829;50.798;4.358;2022-11-15T07:01:12;12.53;;;6.23;;
7575;SDS011;3829;50.798;4.358;2022-11-15T07:03:39;8.07;;;5.73;;
7575;SDS011;3829;50.798;4.358;2022-11-15T07:06:06;8.53;;;5.20;;
7575;SDS011;3829;50.798;4.358;2022-11-15T07:08:32;12.73;;;5.90;;
7575;SDS011;3829;50.798;4.358;2022-11-15T07:10:59;8.77;;;5.50;;
7575;SDS011;3829;50.798;4.358;2022-11-15T07:13:30;14.03;;;6.17;;
7575;SDS011;3829;50.798;4.358;2022-11-15T07:16:04;9.20;;;5.83;;
7575;SDS011;3829;50.798;4.358;2022-11-15T07:18:33;16.27;;;6.00;;
7575;SDS011;3829;50.798;4.358;2022-11-15T07:21:03;13.90;;;5.47;;
7575;SDS011;3829;50.798;4.358;2022-11-15T07:23:29;9.70;;;5.90;;
7575;SDS011;3829;50.798;4.358;2022-11-15T07:25:58;13.40;;;6.17;;
7575;SDS011;3829;50.798;4.358;2022-11-15T07:28:27;8.57;;;5.23;;
7575;SDS011;3829;50.798;4.358;2022-11-15T07:30:53;13.17;;;6.37;;
7575;SDS011;3829;50.798;4.358;2022-11-15T07:33:19;13.43;;;5.67;;
7575;SDS011;3829;50.798;4.358;2022-11-15T07:35:44;12.13;;;5.33;;
7575;SDS011;3829;50.798;4.358;2022-11-15T07:38:13;8.73;;;6.30;;
7575;SDS011;3829;50.798;4.358;2022-11-15T07:40:39;8.60;;;5.20;;
7575;SDS011;3829;50.798;4.358;2022-11-15T07:43:06;14.50;;;5.93;;
7575;SDS011;3829;50.798;4.358;2022-11-15T07:45:33;12.73;;;6.10;;
7575;SDS011;3829;50.798;4.358;2022-11-15T07:47:59;11.43;;;6.00;;
7575;SDS011;3829;50.798;4.358;2022-11-15T07:50:25;10.07;;;6.23;;
7575;SDS011;3829;50.798;4.358;2022-11-15T07:52:55;12.67;;;5.30;;
7575;SDS011;3829;50.798;4.358;2022-11-15T07:55:22;9.33;;;4.93;;
7575;SDS011;3829;50.798;4.358;2022-11-15T07:57:48;6.47;;;4.97;;
7575;SDS011;3829;50.798;4.358;2022-11-15T08:00:14;11.47;;;5.00;;
7575;SDS011;3829;50.798;4.358;2022-11-15T08:02:40;12.03;;;5.03;;
7575;SDS011;3829;50.798;4.358;2022-11-15T08:05:06;5.50;;;4.33;;
7575;SDS011;3829;50.798;4.358;2022-11-15T08:07:31;9.50;;;4.17;;
7575;SDS011;3829;50.798;4.358;2022-11-15T08:09:57;7.37;;;4.27;;
7575;SDS011;3829;50.798;4.358;2022-11-15T08:12:23;8.57;;;4.27;;
7575;SDS011;3829;50.798;4.358;2022-11-15T08:14:49;7.83;;;4.20;;
7575;SDS011;3829;50.798;4.358;2022-11-15T08:17:15;5.23;;;4.20;;
7575;SDS011;3829;50.798;4.358;2022-11-15T08:19:40;9.03;;;4.47;;
7575;SDS011;3829;50.798;4.358;2022-11-15T08:22:06;7.57;;;4.30;;
7575;SDS011;3829;50.798;4.358;2022-11-15T08:24:32;4.67;;;3.67;;
7575;SDS011;3829;50.798;4.358;2022-11-15T08:26:58;9.93;;;3.80;;
7575;SDS011;3829;50.798;4.358;2022-11-15T08:29:24;6.53;;;3.23;;
7575;SDS011;3829;50.798;4.358;2022-11-15T08:31:50;7.07;;;3.10;;
7575;SDS011;3829;50.798;4.358;2022-11-15T08:34:16;8.43;;;2.80;;
7575;SDS011;3829;50.798;4.358;2022-11-15T08:36:41;8.63;;;2.93;;
7575;SDS011;3829;50.798;4.358;2022-11-15T08:39:09;5.13;;;2.90;;
7575;SDS011;3829;50.798;4.358;2022-11-15T08:41:37;9.33;;;2.50;;
7575;SDS011;3829;50.798;4.358;2022-11-15T08:44:03;6.30;;;2.93;;
7575;SDS011;3829;50.798;4.358;2022-11-15T08:46:29;6.37;;;2.63;;
7575;SDS011;3829;50.798;4.358;2022-11-15T08:48:55;6.03;;;2.60;;
7575;SDS011;3829;50.798;4.358;2022-11-15T08:51:20;9.30;;;3.40;;
7575;SDS011;3829;50.798;4.358;2022-11-15T08:53:46;11.07;;;3.27;;
7575;SDS011;3829;50.798;4.358;2022-11-15T08:56:12;6.33;;;3.33;;
7575;SDS011;3829;50.798;4.358;2022-11-15T08:58:39;11.73;;;3.53;;
7575;SDS011;3829;50.798;4.358;2022-11-15T09:01:05;7.00;;;2.93;;
7575;SDS011;3829;50.798;4.358;2022-11-15T09:03:31;8.37;;;2.90;;
7575;SDS011;3829;50.798;4.358;2022-11-15T09:05:57;9.63;;;2.80;;
7575;SDS011;3829;50.798;4.358;2022-11-15T09:08:25;3.50;;;2.10;;
7575;SDS011;3829;50.798;4.358;2022-11-15T09:10:55;7.43;;;2.60;;
7575;SDS011;3829;50.798;4.358;2022-11-15T09:13:21;3.67;;;1.93;;
7575;SDS011;3829;50.798;4.358;2022-11-15T09:15:46;7.73;;;2.13;;
7575;SDS011;3829;50.798;4.358;2022-11-15T09:18:12;5.70;;;2.57;;
7575;SDS011;3829;50.798;4.358;2022-11-15T09:20:38;8.33;;;1.97;;
7575;SDS011;3829;50.798;4.358;2022-11-15T09:23:04;5.67;;;2.10;;
7575;SDS011;3829;50.798;4.358;2022-11-15T09:25:30;7.50;;;1.90;;
7575;SDS011;3829;50.798;4.358;2022-11-15T09:27:56;15.10;;;3.00;;
7575;SDS011;3829;50.798;4.358;2022-11-15T09:30:22;10.90;;;2.27;;
7575;SDS011;3829;50.798;4.358;2022-11-15T09:32:48;9.23;;;2.53;;
7575;SDS011;3829;50.798;4.358;2022-11-15T09:35:14;9.17;;;2.07;;
7575;SDS011;3829;50.798;4.358;2022-11-15T09:37:40;15.43;;;2.30;;
7575;SDS011;3829;50.798;4.358;2022-11-15T09:40:06;6.87;;;2.80;;
7575;SDS011;3829;50.798;4.358;2022-11-15T09:51:00;9.23;;;2.30;;
7575;SDS011;3829;50.798;4.358;2022-11-15T09:53:30;6.40;;;1.70;;
7575;SDS011;3829;50.798;4.358;2022-11-15T09:56:19;12.70;;;2.50;;
7575;SDS011;3829;50.798;4.358;2022-11-15T09:59:01;6.70;;;2.10;;
7575;SDS011;3829;50.798;4.358;2022-11-15T10:01:49;4.23;;;2.10;;
7575;SDS011;3829;50.798;4.358;2022-11-15T10:04:40;12.73;;;1.70;;
7575;SDS011;3829;50.798;4.358;2022-11-15T10:12:09;16.63;;;2.10;;
7575;SDS011;3829;50.798;4.358;2022-11-15T10:14:37;9.33;;;2.60;;
7575;SDS011;3829;50.798;4.358;2022-11-15T10:17:11;8.73;;;1.90;;
7575;SDS011;3829;50.798;4.358;2022-11-15T10:19:47;7.60;;;1.67;;
7575;SDS011;3829;50.798;4.358;2022-11-15T10:22:39;9.97;;;2.17;;
7575;SDS011;3829;50.798;4.358;2022-11-15T10:27:39;3.73;;;1.70;;
7575;SDS011;3829;50.798;4.358;2022-11-15T10:30:10;6.90;;;1.70;;
7575;SDS011;3829;50.798;4.358;2022-11-15T10:32:38;7.33;;;1.63;;
7575;SDS011;3829;50.798;4.358;2022-11-15T10:35:24;9.23;;;2.00;;
7575;SDS011;3829;50.798;4.358;2022-11-15T10:38:04;4.40;;;1.50;;
7575;SDS011;3829;50.798;4.358;2022-11-15T10:40:31;9.27;;;1.93;;
7575;SDS011;3829;50.798;4.358;2022-11-15T10:43:13;7.77;;;1.70;;
7575;SDS011;3829;50.798;4.358;2022-11-15T10:45:42;11.60;;;2.00;;
7575;SDS011;3829;50.798;4.358;2022-11-15T10:50:38;7.20;;;1.80;;
7575;SDS011;3829;50.798;4.358;2022-11-15T10:53:15;9.30;;;1.80;;
7575;SDS011;3829;50.798;4.358;2022-11-15T10:55:48;8.83;;;1.73;;
7575;SDS011;3829;50.798;4.358;2022-11-15T11:03:40;8.40;;;1.83;;
7575;SDS011;3829;50.798;4.358;2022-11-15T11:06:25;7.47;;;1.53;;
7575;SDS011;3829;50.798;4.358;2022-11-15T11:08:55;4.70;;;1.53;;
7575;SDS011;3829;50.798;4.358;2022-11-15T11:11:26;6.57;;;1.50;;
7575;SDS011;3829;50.798;4.358;2022-11-15T11:14:17;4.43;;;1.70;;
7575;SDS011;3829;50.798;4.358;2022-11-15T11:17:08;5.23;;;1.57;;
7575;SDS011;3829;50.798;4.358;2022-11-15T11:22:31;6.33;;;1.57;;
7575;SDS011;3829;50.798;4.358;2022-11-15T11:35:45;6.73;;;1.30;;
7575;SDS011;3829;50.798;4.358;2022-11-15T11:38:23;8.03;;;1.40;;
7575;SDS011;3829;50.798;4.358;2022-11-15T11:55:21;7.67;;;1.43;;
7575;SDS011;3829;50.798;4.358;2022-11-15T12:03:39;23.83;;;2.33;;
7575;SDS011;3829;50.798;4.358;2022-11-15T12:08:46;6.83;;;2.07;;
7575;SDS011;3829;50.798;4.358;2022-11-15T12:11:38;5.83;;;1.60;;
7575;SDS011;3829;50.798;4.358;2022-11-15T12:17:02;4.23;;;1.40;;
7575;SDS011;3829;50.798;4.358;2022-11-15T12:19:28;8.17;;;1.50;;
7575;SDS011;3829;50.798;4.358;2022-11-15T12:22:02;3.50;;;1.40;;
7575;SDS011;3829;50.798;4.358;2022-11-15T12:29:56;6.33;;;1.53;;
7575;SDS011;3829;50.798;4.358;2022-11-15T12:32:27;6.87;;;1.60;;
7575;SDS011;3829;50.798;4.358;2022-11-15T12:34:55;9.10;;;1.53;;
7575;SDS011;3829;50.798;4.358;2022-11-15T12:44:56;4.80;;;1.47;;
7575;SDS011;3829;50.798;4.358;2022-11-15T12:47:25;6.47;;;1.93;;
7575;SDS011;3829;50.798;4.358;2022-11-15T12:49:52;8.17;;;1.37;;
7575;SDS011;3829;50.798;4.358;2022-11-15T12:52:17;4.33;;;1.20;;
7575;SDS011;3829;50.798;4.358;2022-11-15T12:54:54;5.57;;;1.37;;
7575;SDS011;3829;50.798;4.358;2022-11-15T12:57:22;7.17;;;1.33;;
7575;SDS011;3829;50.798;4.358;2022-11-15T13:02:41;3.00;;;1.37;;
7575;SDS011;3829;50.798;4.358;2022-11-15T13:17:39;4.80;;;1.50;;
7575;SDS011;3829;50.798;4.358;2022-11-15T13:27:59;3.00;;;1.33;;
7575;SDS011;3829;50.798;4.358;2022-11-15T13:30:27;3.50;;;1.23;;
7575;SDS011;3829;50.798;4.358;2022-11-15T13:32:56;7.63;;;1.47;;
7575;SDS011;3829;50.798;4.358;2022-11-15T13:35:25;2.40;;;1.20;;
7575;SDS011;3829;50.798;4.358;2022-11-15T13:37:52;2.37;;;1.37;;
7575;SDS011;3829;50.798;4.358;2022-11-15T13:40:21;3.03;;;1.27;;
7575;SDS011;3829;50.798;4.358;2022-11-15T13:42:55;2.87;;;1.83;;
7575;SDS011;3829;50.798;4.358;2022-11-15T13:45:21;4.20;;;2.03;;
7575;SDS011;3829;50.798;4.358;2022-11-15T13:47:56;4.63;;;1.33;;
7575;SDS011;3829;50.798;4.358;2022-11-15T13:50:32;2.07;;;1.50;;
7575;SDS011;3829;50.798;4.358;2022-11-15T13:53:02;2.07;;;1.40;;
7575;SDS011;3829;50.798;4.358;2022-11-15T13:55:29;6.30;;;1.47;;
7575;SDS011;3829;50.798;4.358;2022-11-15T13:57:58;2.90;;;1.17;;
7575;SDS011;3829;50.798;4.358;2022-11-15T14:00:37;1.67;;;1.13;;
7575;SDS011;3829;50.798;4.358;2022-11-15T14:06:09;2.67;;;1.53;;
7575;SDS011;3829;50.798;4.358;2022-11-15T14:08:40;3.33;;;1.40;;
7575;SDS011;3829;50.798;4.358;2022-11-15T14:11:27;4.63;;;1.40;;
7575;SDS011;3829;50.798;4.358;2022-11-15T14:16:40;1.90;;;1.30;;
7575;SDS011;3829;50.798;4.358;2022-11-15T14:19:12;4.87;;;1.70;;
7575;SDS011;3829;50.798;4.358;2022-11-15T14:22:15;3.33;;;1.50;;
7575;SDS011;3829;50.798;4.358;2022-11-15T14:24:42;3.83;;;1.40;;
7575;SDS011;3829;50.798;4.358;2022-11-15T14:27:27;9.37;;;1.60;;
7575;SDS011;3829;50.798;4.358;2022-11-15T14:29:54;2.07;;;1.53;;
7575;SDS011;3829;50.798;4.358;2022-11-15T14:32:21;1.47;;;1.27;;
7575;SDS011;3829;50.798;4.358;2022-11-15T14:34:49;2.87;;;1.50;;
7575;SDS011;3829;50.798;4.358;2022-11-15T14:37:25;4.20;;;1.60;;
7575;SDS011;3829;50.798;4.358;2022-11-15T14:40:00;3.70;;;1.97;;
7575;SDS011;3829;50.798;4.358;2022-11-15T14:42:27;4.37;;;1.50;;
7575;SDS011;3829;50.798;4.358;2022-11-15T14:44:53;3.83;;;1.50;;
7575;SDS011;3829;50.798;4.358;2022-11-15T14:47:19;2.80;;;1.57;;
7575;SDS011;3829;50.798;4.358;2022-11-15T14:49:45;3.07;;;1.57;;
7575;SDS011;3829;50.798;4.358;2022-11-15T14:52:30;6.93;;;1.87;;
7575;SDS011;3829;50.798;4.358;2022-11-15T14:55:00;1.97;;;1.53;;
7575;SDS011;3829;50.798;4.358;2022-11-15T14:57:28;3.30;;;1.60;;
7575;SDS011;3829;50.798;4.358;2022-11-15T14:59:53;3.13;;;1.90;;
7575;SDS011;3829;50.798;4.358;2022-11-15T15:02:20;3.80;;;2.20;;
7575;SDS011;3829;50.798;4.358;2022-11-15T15:04:47;5.40;;;1.90;;
7575;SDS011;3829;50.798;4.358;2022-11-15T15:07:14;4.37;;;1.90;;
7575;SDS011;3829;50.798;4.358;2022-11-15T15:09:40;3.80;;;1.90;;
7575;SDS011;3829;50.798;4.358;2022-11-15T15:12:16;3.30;;;2.23;;
7575;SDS011;3829;50.798;4.358;2022-11-15T15:14:44;2.80;;;2.00;;
7575;SDS011;3829;50.798;4.358;2022-11-15T15:17:11;4.10;;;2.00;;
7575;SDS011;3829;50.798;4.358;2022-11-15T15:19:37;5.13;;;2.33;;
7575;SDS011;3829;50.798;4.358;2022-11-15T15:22:03;5.27;;;3.00;;
7575;SDS011;3829;50.798;4.358;2022-11-15T15:24:30;2.90;;;1.97;;
7575;SDS011;3829;50.798;4.358;2022-11-15T15:26:56;4.23;;;2.20;;
7575;SDS011;3829;50.798;4.358;2022-11-15T15:29:21;5.03;;;2.00;;
7575;SDS011;3829;50.798;4.358;2022-11-15T15:31:47;4.53;;;2.20;;
7575;SDS011;3829;50.798;4.358;2022-11-15T15:34:12;4.70;;;2.17;;
7575;SDS011;3829;50.798;4.358;2022-11-15T15:36:38;2.87;;;2.20;;
7575;SDS011;3829;50.798;4.358;2022-11-15T15:39:03;4.00;;;2.37;;
7575;SDS011;3829;50.798;4.358;2022-11-15T15:41:29;3.23;;;2.57;;
7575;SDS011;3829;50.798;4.358;2022-11-15T15:43:54;4.93;;;2.87;;
7575;SDS011;3829;50.798;4.358;2022-11-15T15:46:20;6.03;;;2.90;;
7575;SDS011;3829;50.798;4.358;2022-11-15T15:48:46;5.57;;;2.90;;
7575;SDS011;3829;50.798;4.358;2022-11-15T15:51:12;5.17;;;2.73;;
7575;SDS011;3829;50.798;4.358;2022-11-15T15:53:38;4.37;;;2.63;;
7575;SDS011;3829;50.798;4.358;2022-11-15T15:56:04;4.40;;;2.60;;
7575;SDS011;3829;50.798;4.358;2022-11-15T15:58:33;6.90;;;2.77;;
7575;SDS011;3829;50.798;4.358;2022-11-15T16:00:58;3.63;;;2.90;;
7575;SDS011;3829;50.798;4.358;2022-11-15T16:03:24;4.57;;;2.83;;
7575;SDS011;3829;50.798;4.358;2022-11-15T16:05:50;5.80;;;2.70;;
7575;SDS011;3829;50.798;4.358;2022-11-15T16:08:22;3.93;;;2.57;;
7575;SDS011;3829;50.798;4.358;2022-11-15T16:10:49;4.50;;;2.80;;
7575;SDS011;3829;50.798;4.358;2022-11-15T16:13:15;3.77;;;2.53;;
7575;SDS011;3829;50.798;4.358;2022-11-15T16:15:42;3.73;;;2.53;;
7575;SDS011;3829;50.798;4.358;2022-11-15T16:18:11;4.03;;;2.90;;
7575;SDS011;3829;50.798;4.358;2022-11-15T16:20:44;5.03;;;2.50;;
7575;SDS011;3829;50.798;4.358;2022-11-15T16:23:15;3.20;;;2.50;;
7575;SDS011;3829;50.798;4.358;2022-11-15T16:25:47;5.17;;;3.57;;
7575;SDS011;3829;50.798;4.358;2022-11-15T16:28:18;4.20;;;3.17;;
7575;SDS011;3829;50.798;4.358;2022-11-15T16:31:02;6.00;;;3.23;;
7575;SDS011;3829;50.798;4.358;2022-11-15T16:33:30;4.63;;;3.30;;
7575;SDS011;3829;50.798;4.358;2022-11-15T16:35:56;11.90;;;8.20;;
7575;SDS011;3829;50.798;4.358;2022-11-15T16:38:21;5.63;;;3.70;;
7575;SDS011;3829;50.798;4.358;2022-11-15T16:40:47;8.90;;;4.50;;
7575;SDS011;3829;50.798;4.358;2022-11-15T16:43:13;5.60;;;3.57;;
7575;SDS011;3829;50.798;4.358;2022-11-15T16:45:39;5.23;;;4.30;;
7575;SDS011;3829;50.798;4.358;2022-11-15T16:48:04;6.90;;;3.93;;
7575;SDS011;3829;50.798;4.358;2022-11-15T16:50:31;5.27;;;4.00;;
7575;SDS011;3829;50.798;4.358;2022-11-15T16:53:03;6.07;;;3.67;;
7575;SDS011;3829;50.798;4.358;2022-11-15T16:55:29;5.93;;;4.10;;
7575;SDS011;3829;50.798;4.358;2022-11-15T16:57:55;6.13;;;4.20;;
7575;SDS011;3829;50.798;4.358;2022-11-15T17:00:22;9.13;;;4.73;;
7575;SDS011;3829;50.798;4.358;2022-11-15T17:02:48;8.20;;;4.80;;
7575;SDS011;3829;50.798;4.358;2022-11-15T17:05:15;13.13;;;7.00;;
7575;SDS011;3829;50.798;4.358;2022-11-15T17:07:48;10.70;;;6.63;;
7575;SDS011;3829;50.798;4.358;2022-11-15T17:10:16;8.43;;;5.37;;
7575;SDS011;3829;50.798;4.358;2022-11-15T17:12:42;8.17;;;4.97;;
7575;SDS011;3829;50.798;4.358;2022-11-15T17:15:08;6.77;;;4.30;;
7575;SDS011;3829;50.798;4.358;2022-11-15T17:17:36;6.40;;;3.87;;
7575;SDS011;3829;50.798;4.358;2022-11-15T17:20:02;5.10;;;4.07;;
7575;SDS011;3829;50.798;4.358;2022-11-15T17:22:29;8.10;;;4.80;;
7575;SDS011;3829;50.798;4.358;2022-11-15T17:24:56;8.70;;;4.80;;
7575;SDS011;3829;50.798;4.358;2022-11-15T17:27:22;7.20;;;4.43;;
7575;SDS011;3829;50.798;4.358;2022-11-15T17:29:47;9.70;;;4.90;;
7575;SDS011;3829;50.798;4.358;2022-11-15T17:32:13;8.40;;;5.90;;
7575;SDS011;3829;50.798;4.358;2022-11-15T17:34:38;10.40;;;6.30;;
7575;SDS011;3829;50.798;4.358;2022-11-15T17:37:04;6.93;;;5.07;;
7575;SDS011;3829;50.798;4.358;2022-11-15T17:39:29;8.43;;;5.03;;
7575;SDS011;3829;50.798;4.358;2022-11-15T17:41:55;8.70;;;5.63;;